createdAt,value
2018-06-21T01:32:31.423Z,68.10
2018-06-21T01:34:59.683Z,68.50
2018-06-21T01:37:28.383Z,68.80
2018-06-21T01:39:56.909Z,69.50
2018-06-21T01:42:25.309Z,69.30
2018-06-21T01:44:53.882Z,69.40
2018-06-21T01:47:22.310Z,69.50
2018-06-21T01:49:50.735Z,69.50
2018-06-21T01:52:19.206Z,69.40
2018-06-21T01:54:47.685Z,69.20
2018-06-21T01:57:16.233Z,69.10
2018-06-21T01:59:44.976Z,69.00
2018-06-21T02:02:13.456Z,69.20
2018-06-21T02:04:42.005Z,69.70
2018-06-21T02:07:10.429Z,70.00
2018-06-21T02:09:38.800Z,70.50
2018-06-21T02:12:07.202Z,70.60
2018-06-21T02:14:35.600Z,70.60
2018-06-21T02:17:04.293Z,70.60
2018-06-21T02:19:33.066Z,70.60
2018-06-21T02:22:01.755Z,70.80
2018-06-21T02:24:30.578Z,70.90
2018-06-21T02:26:59.168Z,71.10
2018-06-21T02:29:27.764Z,71.90
2018-06-21T02:31:56.366Z,72.10
2018-06-21T02:34:25.035Z,72.90
2018-06-21T02:36:53.734Z,72.90
2018-06-21T02:39:22.360Z,73.50
2018-06-21T02:41:50.978Z,72.80
2018-06-21T02:44:19.580Z,73.30
2018-06-21T02:46:48.230Z,74.20
2018-06-21T02:49:16.807Z,75.20
2018-06-21T02:51:45.427Z,75.00
2018-06-21T02:54:14.101Z,74.50
2018-06-21T02:56:42.678Z,73.80
2018-06-21T02:59:11.298Z,73.80
2018-06-21T03:01:40.265Z,73.60
2018-06-21T03:04:09.209Z,73.60
2018-06-21T03:06:37.846Z,73.80
2018-06-21T03:09:08.006Z,73.40
2018-06-21T03:11:36.664Z,73.30
2018-06-21T03:14:05.576Z,73.60
2018-06-21T03:16:34.123Z,73.50
2018-06-21T03:19:02.826Z,73.80
2018-06-21T03:21:31.434Z,73.70
2018-06-21T03:24:00.279Z,73.50
2018-06-21T03:26:28.712Z,73.80
2018-06-21T03:28:59.138Z,75.70
2018-06-21T03:31:27.837Z,77.20
2018-06-21T03:33:56.469Z,77.30
2018-06-21T03:36:24.967Z,76.70
2018-06-21T03:38:53.462Z,78.30
2018-06-21T03:41:21.964Z,77.70
2018-06-21T03:43:50.381Z,76.70
2018-06-21T03:46:18.792Z,76.10
2018-06-21T03:48:47.311Z,76.80
2018-06-21T03:51:15.806Z,78.10
2018-06-21T03:53:44.382Z,77.60
2018-06-21T03:56:12.788Z,77.10
2018-06-21T03:58:41.297Z,77.20
2018-06-21T04:01:10.086Z,77.60
2018-06-21T04:03:38.587Z,78.20
2018-06-21T04:06:07.106Z,77.90
2018-06-21T04:08:35.521Z,78.30
2018-06-21T04:11:04.130Z,78.40
2018-06-21T04:13:32.700Z,78.50
2018-06-21T04:16:01.086Z,78.90
2018-06-21T04:18:36.037Z,78.40
2018-06-21T04:21:04.934Z,78.90
2018-06-21T04:23:35.195Z,80.50
2018-06-21T04:26:03.696Z,80.40
2018-06-21T04:28:33.153Z,80.00
2018-06-21T04:31:01.952Z,80.60
2018-06-21T04:33:30.684Z,80.70
2018-06-21T04:35:59.168Z,81.30
2018-06-21T04:38:30.169Z,80.90
2018-06-21T04:43:26.536Z,79.40
2018-06-21T04:45:55.133Z,79.80
2018-06-21T04:48:23.616Z,79.60
2018-06-21T04:50:52.184Z,79.70
2018-06-21T04:53:20.685Z,79.50
2018-06-21T04:58:17.108Z,78.80
2018-06-21T05:00:45.569Z,77.90
2018-06-21T05:03:14.136Z,78.20
2018-06-21T05:05:42.665Z,77.50
2018-06-21T05:08:11.240Z,78.20
2018-06-21T05:10:39.785Z,78.00
2018-06-21T05:13:08.413Z,77.90
2018-06-21T05:15:36.935Z,78.00
2018-06-21T05:18:05.632Z,78.30
2018-06-21T05:20:34.121Z,79.30
2018-06-21T05:23:02.693Z,79.70
2018-06-21T05:25:31.384Z,78.90
2018-06-21T05:27:59.874Z,78.60
2018-06-21T05:30:28.508Z,78.20
2018-06-21T05:35:24.985Z,79.00
2018-06-21T05:37:53.556Z,78.70
2018-06-21T05:40:35.840Z,79.00
2018-06-21T05:43:04.769Z,79.60
2018-06-21T05:45:48.686Z,79.20
2018-06-21T05:48:17.264Z,79.40
2018-06-21T05:50:45.785Z,79.40
2018-06-21T05:53:14.253Z,79.30
2018-06-21T05:55:42.784Z,79.40
2018-06-21T05:58:11.355Z,78.70
2018-06-21T06:00:39.864Z,79.80
2018-06-21T06:03:08.419Z,79.80
2018-06-21T06:05:37.149Z,80.30
2018-06-21T06:08:05.654Z,80.20
2018-06-21T06:10:34.109Z,79.80
2018-06-21T06:13:02.614Z,79.80
2018-06-21T06:15:31.024Z,79.80
2018-06-21T06:17:59.571Z,79.60
2018-06-21T06:20:28.125Z,79.00
2018-06-21T06:22:56.697Z,78.90
2018-06-21T06:25:25.254Z,79.20
2018-06-21T06:27:53.693Z,78.90
2018-06-21T06:30:22.164Z,78.90
2018-06-21T06:32:50.632Z,79.30
2018-06-21T06:35:19.097Z,79.20
2018-06-21T06:37:47.630Z,79.30
2018-06-21T06:40:16.146Z,79.90
2018-06-21T06:42:44.649Z,79.40
2018-06-21T06:45:13.116Z,79.50
2018-06-21T06:50:09.626Z,80.20
2018-06-21T06:52:38.136Z,80.80
2018-06-21T06:55:07.141Z,80.70
2018-06-21T06:57:35.692Z,80.20
2018-06-21T07:00:06.557Z,80.90
2018-06-21T07:02:35.069Z,80.20
2018-06-21T07:05:03.710Z,79.70
2018-06-21T07:07:32.617Z,80.70
2018-06-21T07:10:01.164Z,81.00
2018-06-21T07:12:29.717Z,80.40
2018-06-21T07:14:58.183Z,80.50
2018-06-21T07:17:26.677Z,79.70
2018-06-21T07:19:55.260Z,79.70
2018-06-21T07:22:23.700Z,79.80
2018-06-21T07:24:52.338Z,79.60
2018-06-21T07:27:20.884Z,79.80
2018-06-21T07:29:49.495Z,79.90
2018-06-21T07:32:17.989Z,79.40
2018-06-21T07:34:46.389Z,79.50
2018-06-21T07:37:15.292Z,78.40
2018-06-21T07:39:43.792Z,78.00
2018-06-21T07:42:12.229Z,79.30
2018-06-21T07:44:40.621Z,79.40
2018-06-21T07:47:09.268Z,78.50
2018-06-21T07:49:37.800Z,79.00
2018-06-21T07:52:06.249Z,79.10
2018-06-21T07:54:34.916Z,78.40
2018-06-21T07:57:03.404Z,78.40
2018-06-21T07:59:31.965Z,78.20
2018-06-21T08:02:00.472Z,78.10
2018-06-21T08:04:28.868Z,78.90
2018-06-21T08:06:57.385Z,78.20
2018-06-21T08:09:26.026Z,77.70
2018-06-21T08:11:54.496Z,76.90
2018-06-21T08:14:22.981Z,76.50
2018-06-21T08:16:51.597Z,76.60
2018-06-21T08:19:19.946Z,76.60
2018-06-21T08:21:48.415Z,76.40
2018-06-21T08:24:16.889Z,76.10
2018-06-21T08:26:45.566Z,76.70
2018-06-21T08:29:14.255Z,76.70
2018-06-21T08:31:43.238Z,76.40
2018-06-21T08:34:11.937Z,76.50
2018-06-21T08:36:40.403Z,76.00
2018-06-21T08:39:09.738Z,75.90
2018-06-21T08:41:38.180Z,75.90
2018-06-21T08:44:06.688Z,75.90
2018-06-21T08:46:35.131Z,75.40
2018-06-21T08:49:03.715Z,74.90
2018-06-21T08:51:32.023Z,75.40
2018-06-21T08:54:00.320Z,75.10
2018-06-21T08:56:28.592Z,75.00
2018-06-21T08:58:56.948Z,74.70
2018-06-21T09:01:25.425Z,74.60
2018-06-21T09:03:53.996Z,74.00
2018-06-21T09:06:22.413Z,74.90
2018-06-21T09:08:51.045Z,75.40
2018-06-21T09:11:19.558Z,74.90
2018-06-21T09:13:48.024Z,75.10
2018-06-21T09:16:16.485Z,74.60
2018-06-21T09:18:45.015Z,74.50
2018-06-21T09:21:13.503Z,75.10
2018-06-21T09:23:41.920Z,75.80
2018-06-21T09:26:12.461Z,75.70
2018-06-21T09:28:41.729Z,76.60
2018-06-21T09:31:10.337Z,76.70
2018-06-21T09:33:38.864Z,78.20
2018-06-21T09:36:07.397Z,78.10
2018-06-21T09:38:41.025Z,78.60
2018-06-21T09:41:14.710Z,77.90
2018-06-21T09:43:50.297Z,78.20
2018-06-21T09:46:33.869Z,78.00
2018-06-21T09:48:52.819Z,77.60
2018-06-21T09:51:21.607Z,79.10
2018-06-21T09:53:50.260Z,78.70
2018-06-21T09:56:19.148Z,78.70
2018-06-21T09:58:47.648Z,79.20
2018-06-21T10:01:16.273Z,80.00
2018-06-21T10:03:44.859Z,79.10
2018-06-21T10:06:13.285Z,79.60
2018-06-21T10:08:42.033Z,79.30
2018-06-21T10:11:10.521Z,79.70
2018-06-21T10:13:39.018Z,79.20
2018-06-21T10:16:07.645Z,80.40
2018-06-21T10:18:36.205Z,81.00
2018-06-21T10:21:04.708Z,80.40
2018-06-21T10:23:33.212Z,80.90
2018-06-21T10:26:01.694Z,79.80
2018-06-21T10:28:30.324Z,80.60
2018-06-21T10:30:58.844Z,80.50
2018-06-21T10:36:01.233Z,79.00
2018-06-21T10:38:29.849Z,79.00
2018-06-21T10:40:58.504Z,78.80
2018-06-21T10:43:27.168Z,78.20
2018-06-21T10:45:55.688Z,76.60
2018-06-21T10:48:24.120Z,77.40
2018-06-21T10:50:52.720Z,73.90
2018-06-21T10:53:21.197Z,75.80
2018-06-21T10:55:49.648Z,74.20
2018-06-21T10:58:18.131Z,75.80
2018-06-21T11:00:46.646Z,74.80
2018-06-21T11:03:15.110Z,71.70
2018-06-21T11:05:43.723Z,72.10
2018-06-21T11:08:12.168Z,70.00
2018-06-21T11:10:40.849Z,71.10
2018-06-21T11:13:09.368Z,69.50
2018-06-21T11:15:37.927Z,68.40
2018-06-21T11:18:06.736Z,68.50
2018-06-21T11:20:35.332Z,65.10
2018-06-21T11:23:03.825Z,66.70
2018-06-21T11:25:34.125Z,64.60
2018-06-21T11:28:02.771Z,62.70
2018-06-21T11:30:31.325Z,63.90
2018-06-21T11:32:59.774Z,63.70
2018-06-21T11:35:28.340Z,63.90
2018-06-21T11:37:56.814Z,63.50
2018-06-21T11:40:25.386Z,61.80
2018-06-21T11:42:53.925Z,62.40
2018-06-21T11:45:22.420Z,61.40
2018-06-21T11:47:50.916Z,59.50
2018-06-21T11:50:19.405Z,58.90
2018-06-21T11:52:47.791Z,59.70
2018-06-21T11:55:19.549Z,57.90
2018-06-21T11:57:48.135Z,58.30
2018-06-21T12:00:16.604Z,59.30
2018-06-21T12:02:45.167Z,58.30
2018-06-21T12:05:13.741Z,57.90
2018-06-21T12:07:42.195Z,56.40
2018-06-21T12:10:10.677Z,54.90
2018-06-21T12:12:39.222Z,53.60
2018-06-21T12:15:07.680Z,54.60
2018-06-21T12:17:36.232Z,55.30
2018-06-21T12:20:04.794Z,56.80
2018-06-21T12:22:34.455Z,57.80
2018-06-21T12:25:03.013Z,57.90
2018-06-21T12:27:31.413Z,55.90
2018-06-21T12:29:59.893Z,55.20
2018-06-21T12:32:28.342Z,55.30
2018-06-21T12:34:56.884Z,53.40
2018-06-21T12:37:25.489Z,53.90
2018-06-21T12:39:54.072Z,53.00
2018-06-21T12:42:22.549Z,53.00
2018-06-21T12:44:51.144Z,53.50
2018-06-21T12:47:19.636Z,55.10
2018-06-21T12:49:47.903Z,64.40
2018-06-21T12:52:16.360Z,64.10
2018-06-21T12:54:44.913Z,64.70
2018-06-21T12:57:13.513Z,66.10
2018-06-21T12:59:42.042Z,68.80
2018-06-21T13:02:10.680Z,70.50
2018-06-21T13:04:39.328Z,70.30
2018-06-21T13:07:09.591Z,72.40
2018-06-21T13:09:50.797Z,72.30
2018-06-21T13:12:31.670Z,70.80
2018-06-21T13:15:00.208Z,71.40
2018-06-21T13:17:29.795Z,71.60
2018-06-21T13:19:59.129Z,71.70
2018-06-21T13:22:27.974Z,70.00
2018-06-21T13:24:56.577Z,68.70
2018-06-21T13:27:25.012Z,68.00
2018-06-21T13:29:53.465Z,67.20
2018-06-21T13:32:21.997Z,66.70
2018-06-21T13:34:50.414Z,67.30
2018-06-21T13:37:18.862Z,66.70
2018-06-21T13:39:47.358Z,67.50
2018-06-21T13:42:15.834Z,66.80
2018-06-21T13:44:44.428Z,68.10
2018-06-21T13:47:13.013Z,66.90
2018-06-21T13:49:41.437Z,65.80
2018-06-21T13:52:10.011Z,64.50
2018-06-21T13:54:38.585Z,64.30
2018-06-21T13:57:07.084Z,67.20
2018-06-21T13:59:35.525Z,69.00
2018-06-21T14:02:04.125Z,70.40
2018-06-21T14:04:32.608Z,72.30
2018-06-21T14:07:01.085Z,71.20
2018-06-21T14:09:29.493Z,73.20
2018-06-21T14:11:58.097Z,72.70
2018-06-21T14:14:26.736Z,73.10
2018-06-21T14:16:55.405Z,69.00
2018-06-21T14:19:25.004Z,72.00
2018-06-21T14:21:53.536Z,72.80
2018-06-21T14:24:21.980Z,71.70
2018-06-21T14:26:50.536Z,70.10
2018-06-21T14:29:19.028Z,67.80
2018-06-21T14:31:47.469Z,68.30
2018-06-21T14:34:15.933Z,67.00
2018-06-21T14:36:46.151Z,65.20
2018-06-21T14:39:16.173Z,65.30
2018-06-21T14:41:44.592Z,64.90
2018-06-21T14:44:13.120Z,64.60
2018-06-21T14:46:41.643Z,62.30
2018-06-21T14:49:10.047Z,62.80
2018-06-21T14:51:38.479Z,62.70
2018-06-21T14:54:06.990Z,62.70
2018-06-21T14:56:35.509Z,62.40
2018-06-21T14:59:04.102Z,61.10
2018-06-21T15:01:32.528Z,63.10
2018-06-21T15:04:01.017Z,63.00
2018-06-21T15:06:29.524Z,61.90
2018-06-21T15:08:58.049Z,61.40
2018-06-21T15:11:26.526Z,60.00
2018-06-21T15:13:56.053Z,59.50
2018-06-21T15:16:24.767Z,59.20
2018-06-21T15:18:53.209Z,59.20
2018-06-21T15:21:21.777Z,59.30
2018-06-21T15:23:50.304Z,59.60
2018-06-21T15:26:18.820Z,58.90
2018-06-21T15:28:47.337Z,58.20
2018-06-21T15:31:15.886Z,59.00
2018-06-21T15:33:44.405Z,57.90
2018-06-21T15:36:12.875Z,58.00
2018-06-21T15:38:41.506Z,56.90
2018-06-21T15:41:10.023Z,56.80
2018-06-21T15:43:38.564Z,55.30
2018-06-21T15:46:07.060Z,55.60
2018-06-21T15:48:35.642Z,56.60
2018-06-21T15:51:04.085Z,56.10
2018-06-21T15:53:32.560Z,56.80
2018-06-21T15:56:01.106Z,57.20
2018-06-21T15:58:29.610Z,57.50
2018-06-21T16:00:58.079Z,56.40
2018-06-21T16:03:26.794Z,55.90
2018-06-21T16:05:55.279Z,55.70
2018-06-21T16:08:23.721Z,56.10
2018-06-21T16:10:52.144Z,57.10
2018-06-21T16:13:20.750Z,57.20
2018-06-21T16:15:49.401Z,57.20
2018-06-21T16:18:17.898Z,58.40
2018-06-21T16:20:46.621Z,61.70
2018-06-21T16:23:15.133Z,65.10
2018-06-21T16:25:43.581Z,66.70
2018-06-21T16:30:40.048Z,68.70
2018-06-21T16:33:08.736Z,69.40
2018-06-21T16:38:05.233Z,66.70
2018-06-21T16:40:36.970Z,68.10
2018-06-21T16:43:05.849Z,67.60
2018-06-21T16:45:34.460Z,66.30
2018-06-21T16:48:03.016Z,66.60
2018-06-21T16:50:31.493Z,68.20
2018-06-21T16:53:00.054Z,67.30
2018-06-21T16:55:28.511Z,67.50
2018-06-21T16:57:56.943Z,66.70
2018-06-21T17:00:25.336Z,66.40
2018-06-21T17:02:53.824Z,66.40
2018-06-21T17:05:22.274Z,66.40
2018-06-21T17:07:50.916Z,67.60
2018-06-21T17:10:19.402Z,69.40
2018-06-21T17:12:47.992Z,69.80
2018-06-21T17:15:16.564Z,70.90
2018-06-21T17:17:45.189Z,70.10
2018-06-21T17:20:13.738Z,70.60
2018-06-21T17:22:42.299Z,69.70
2018-06-21T17:25:10.857Z,68.90
2018-06-21T17:27:39.327Z,70.30
2018-06-21T17:30:07.930Z,70.70
2018-06-21T17:32:36.477Z,70.30
2018-06-21T17:35:05.122Z,69.90
2018-06-21T17:37:33.653Z,69.80
2018-06-21T17:40:02.149Z,70.00
2018-06-21T17:42:30.822Z,68.90
2018-06-21T17:44:59.298Z,67.20
2018-06-21T17:47:28.046Z,66.30
2018-06-21T17:49:56.680Z,66.60
2018-06-21T17:52:25.353Z,65.60
2018-06-21T17:54:53.895Z,64.30
2018-06-21T17:57:22.443Z,64.50
2018-06-21T17:59:51.025Z,64.60
2018-06-21T18:02:19.584Z,64.10
2018-06-21T18:04:48.203Z,63.30
2018-06-21T18:07:16.830Z,63.30
2018-06-21T18:09:45.348Z,64.00
2018-06-21T18:12:15.029Z,63.30
2018-06-21T18:14:43.605Z,64.10
2018-06-21T18:19:40.240Z,64.20
2018-06-21T18:22:08.768Z,64.30
2018-06-21T18:24:37.292Z,64.90
2018-06-21T18:27:05.809Z,65.70
2018-06-21T18:29:35.840Z,65.60
2018-06-21T18:32:04.456Z,66.00
2018-06-21T18:34:33.220Z,65.40
2018-06-21T18:37:02.120Z,65.60
2018-06-21T18:39:30.539Z,65.30
2018-06-21T18:42:00.181Z,65.40
2018-06-21T18:44:28.673Z,65.60
2018-06-21T18:46:58.301Z,65.70
2018-06-21T18:49:34.889Z,65.50
2018-06-21T18:52:03.968Z,65.50
2018-06-21T18:54:32.587Z,65.80
2018-06-21T18:57:01.211Z,65.90
2018-06-21T18:59:30.833Z,65.90
2018-06-21T19:02:01.429Z,65.40
2018-06-21T19:04:30.010Z,65.80
2018-06-21T19:07:04.037Z,66.50
2018-06-21T19:09:37.841Z,66.20
2018-06-21T19:12:08.229Z,66.00
2018-06-21T19:14:37.707Z,66.20
2018-06-21T19:19:58.093Z,66.20
2018-06-21T19:22:26.713Z,66.20
2018-06-21T19:24:56.262Z,66.30
2018-06-21T19:30:16.623Z,66.90
2018-06-21T19:32:45.194Z,66.70
2018-06-21T19:35:13.718Z,67.00
2018-06-21T19:40:32.027Z,66.90
2018-06-21T19:43:00.697Z,67.10
2018-06-21T19:45:29.209Z,67.70
2018-06-21T19:47:57.777Z,68.00
2018-06-21T19:50:30.523Z,67.90
2018-06-21T19:52:59.045Z,68.20
2018-06-21T19:55:27.501Z,68.10
2018-06-21T19:57:57.165Z,68.10
2018-06-21T20:00:25.871Z,68.70
2018-06-21T20:03:09.386Z,69.00
2018-06-21T20:05:38.013Z,68.60
2018-06-21T20:08:06.605Z,68.90
2018-06-21T20:10:35.577Z,69.30
2018-06-21T20:13:04.404Z,69.10
2018-06-21T20:15:43.045Z,69.30
2018-06-21T20:18:11.772Z,68.80
2018-06-21T20:20:41.518Z,69.00
2018-06-21T20:23:10.029Z,69.10
2018-06-21T20:25:38.714Z,69.60
2018-06-21T20:28:07.531Z,69.90
2018-06-21T20:30:36.230Z,69.90
2018-06-21T20:33:04.837Z,70.40
2018-06-21T20:35:33.473Z,71.70
2018-06-21T20:38:02.090Z,73.20
2018-06-21T20:40:30.874Z,72.70
2018-06-21T20:42:59.537Z,73.80
2018-06-21T20:45:28.093Z,73.40
2018-06-21T20:47:56.821Z,73.80
2018-06-21T20:50:25.754Z,73.30
2018-06-21T20:52:54.358Z,73.20
2018-06-21T20:55:23.037Z,73.70
2018-06-21T20:57:51.644Z,75.20
2018-06-21T21:00:20.236Z,74.70
2018-06-21T21:02:48.939Z,75.40
2018-06-21T21:05:18.184Z,74.90
2018-06-21T21:07:48.526Z,74.70
2018-06-21T21:10:18.201Z,74.90
2018-06-21T21:12:46.834Z,75.20
2018-06-21T21:15:15.889Z,75.50
2018-06-21T21:17:44.614Z,75.00
2018-06-21T21:20:13.156Z,75.20
2018-06-21T21:22:42.184Z,75.70
2018-06-21T21:25:10.921Z,76.50
2018-06-21T21:27:39.617Z,77.40
2018-06-21T21:32:37.333Z,78.40
2018-06-21T21:35:06.132Z,78.80
2018-06-21T21:37:34.740Z,79.00
2018-06-21T21:40:04.713Z,79.10
2018-06-21T21:42:34.599Z,78.90
2018-06-21T21:45:03.404Z,78.80
2018-06-21T21:47:32.125Z,79.60
2018-06-21T21:50:02.676Z,80.40
2018-06-21T21:52:31.472Z,81.10
2018-06-21T21:55:00.309Z,81.10
2018-06-21T21:57:31.083Z,80.30
2018-06-21T21:59:59.809Z,80.70
2018-06-21T22:02:28.658Z,79.60
2018-06-21T22:04:57.301Z,80.70
2018-06-21T22:07:25.945Z,79.80
2018-06-21T22:12:22.665Z,80.80
2018-06-21T22:14:51.303Z,80.10
2018-06-21T22:17:19.960Z,80.10
2018-06-21T22:19:48.594Z,80.60
2018-06-21T22:22:17.341Z,80.30
2018-06-21T22:24:45.968Z,80.80
2018-06-21T22:27:14.625Z,81.10
2018-06-21T22:29:43.229Z,81.00
2018-06-21T22:32:14.256Z,80.90
2018-06-21T22:34:42.718Z,80.70
2018-06-21T22:39:39.311Z,80.70
2018-06-21T22:42:08.058Z,81.10
2018-06-21T22:44:36.656Z,81.10
2018-06-21T22:47:05.216Z,81.70
2018-06-21T22:49:33.765Z,81.30
2018-06-21T22:52:02.459Z,81.80
2018-06-21T22:54:31.330Z,82.60
2018-06-21T22:57:00.062Z,82.00
2018-06-21T22:59:28.649Z,81.90
2018-06-21T23:01:57.260Z,82.60
2018-06-21T23:04:25.719Z,82.30
2018-06-21T23:06:54.309Z,81.70
2018-06-21T23:09:22.958Z,81.20
2018-06-21T23:11:51.477Z,81.50
2018-06-21T23:14:19.966Z,81.30
2018-06-21T23:16:48.489Z,81.20
2018-06-21T23:19:25.088Z,81.80
2018-06-21T23:21:53.858Z,82.00
2018-06-21T23:24:22.687Z,82.30
2018-06-21T23:26:51.527Z,82.50
2018-06-21T23:29:20.177Z,82.80
2018-06-21T23:31:48.841Z,82.30
2018-06-21T23:34:17.672Z,82.00
2018-06-21T23:36:46.152Z,82.20
2018-06-21T23:39:14.605Z,82.70
2018-06-21T23:41:43.681Z,82.20
2018-06-21T23:44:13.413Z,82.00
2018-06-21T23:46:42.405Z,82.20
2018-06-21T23:49:11.229Z,82.10
2018-06-21T23:51:40.237Z,82.50
2018-06-21T23:54:10.677Z,82.50
2018-06-21T23:56:39.513Z,82.90
2018-06-21T23:59:08.075Z,83.00
